Time;durP1;ratioP1;P1;durP2;ratioP2;P2;SDS_P1;SDS_P2;PMS_P1;PMS_P2;Temp;Humidity;BMP_temperature;BMP_pressure;BME280_temperature;BME280_humidity;BME280_pressure;Samples;Min_cycle;Max_cycle;Signal;HPM_P1;HPM_P2
2022/06/29 00:01:20;;;;;;;;;;;;;;;;;;5074603;28;19924;-66
2022/06/29 00:03:46;;;;;;;;;;;;;;;;;;5073875;28;19948;-66
2022/06/29 00:06:12;;;;;;;;;;;;;;;;;;5074378;28;19924;-66
2022/06/29 00:08:38;;;;;;;;;;;;;;;;;;5074558;28;19947;-66
2022/06/29 00:11:04;;;;;;;;;;;;;;;;;;5073610;28;19925;-66
2022/06/29 00:13:30;;;;;;;;;;;;;;;;;;5074449;28;19921;-66
2022/06/29 00:15:56;;;;;;;;;;;;;;;;;;5074233;28;19925;-66
2022/06/29 00:18:22;;;;;;;;;;;;;;;;;;5073648;28;19932;-66
2022/06/29 00:20:48;;;;;;;;;;;;;;;;;;5074099;28;20174;-66
2022/06/29 00:23:13;;;;;;;;;;;;;;;;;;5074282;28;19951;-66
2022/06/29 00:25:39;;;;;;;;;;;;;;;;;;5077860;28;19942;-66
2022/06/29 00:28:05;;;;;;;;;;;;;;;;;;5094151;28;20108;-66
2022/06/29 00:30:31;;;;;;;;;;;;;;;;;;5094267;28;19924;-66
2022/06/29 00:32:57;;;;;;;;;;;;;;;;;;5093646;28;19927;-66
2022/06/29 00:35:23;;;;;;;;;;;;;;;;;;5094181;28;20251;-66
2022/06/29 00:37:49;;;;;;;;;;;;;;;;;;5093965;28;19924;-66
2022/06/29 00:40:16;;;;;;;;;;;;;;;;;;5093448;28;19955;-66
2022/06/29 00:42:42;;;;;;;;;;;;;;;;;;5091367;28;20309;-66
2022/06/29 00:45:08;;;;;;;;;;;;;;;;;;5094034;28;20031;-66
2022/06/29 00:47:34;;;;;;;;;;;;;;;;;;5093312;28;19927;-66
2022/06/29 00:50:00;;;;;;;;;;;;;;;;;;5093928;28;19974;-66
2022/06/29 00:52:26;;;;;;;;;;;;;;;;;;5093689;28;20068;-66
2022/06/29 00:54:52;;;;;;;;;;;;;;;;;;5093084;28;19924;-66
2022/06/29 00:57:18;;;;;;;;;;;;;;;;;;5093719;28;19973;-66
2022/06/29 00:59:44;;;;;;;;;;;;;;;;;;5093691;28;20240;-66
2022/06/29 01:02:10;;;;;;;;;;;;;;;;;;5092836;28;19985;-66
2022/06/29 01:04:36;;;;;;;;;;;;;;;;;;5093485;28;19924;-66
2022/06/29 01:07:02;;;;;;;;;;;;;;;;;;5093315;28;19947;-66
2022/06/29 01:09:28;;;;;;;;;;;;;;;;;;5092819;28;19920;-66
2022/06/29 01:11:54;;;;;;;;;;;;;;;;;;5093277;28;19924;-66
2022/06/29 01:14:20;;;;;;;;;;;;;;;;;;5093439;28;19960;-66
2022/06/29 01:16:46;;;;;;;;;;;;;;;;;;5092611;28;19950;-66
2022/06/29 01:19:12;;;;;;;;;;;;;;;;;;5092962;28;19924;-66
2022/06/29 01:21:37;;;;;;;;;;;;;;;;;;5093242;28;19920;-66
2022/06/29 01:24:03;;;;;;;;;;;;;;;;;;5092529;28;20697;-66
2022/06/29 01:26:29;;;;;;;;;;;;;;;;;;5081441;28;19943;-66
2022/06/29 01:28:55;;;;;;;;;;;;;;;;;;5072856;28;20007;-66
2022/06/29 01:31:21;;;;;;;;;;;;;;;;;;5072170;28;19944;-66
2022/06/29 01:33:47;;;;;;;;;;;;;;;;;;5072736;28;19920;-66
2022/06/29 01:36:13;;;;;;;;;;;;;;;;;;5072645;28;19920;-66
2022/06/29 01:38:39;;;;;;;;;;;;;;;;;;5072031;28;19924;-66
2022/06/29 01:41:05;;;;;;;;;;;;;;;;;;5072454;28;19932;-66
2022/06/29 01:43:31;;;;;;;;;;;;;;;;;;5072460;28;19999;-66
2022/06/29 01:45:57;;;;;;;;;;;;;;;;;;5072262;28;19924;-66
2022/06/29 01:48:23;;;;;;;;;;;;;;;;;;5071954;28;20267;-66
2022/06/29 01:50:49;;;;;;;;;;;;;;;;;;5072364;28;19967;-66
2022/06/29 01:53:15;;;;;;;;;;;;;;;;;;5072528;28;19924;-66
2022/06/29 01:55:41;;;;;;;;;;;;;;;;;;5071591;28;19920;-66
2022/06/29 01:58:07;;;;;;;;;;;;;;;;;;5072237;28;20118;-66
2022/06/29 02:00:33;;;;;;;;;;;;;;;;;;5072224;28;19948;-66
2022/06/29 02:02:59;;;;;;;;;;;;;;;;;;5071670;28;20297;-66
2022/06/29 02:05:24;;;;;;;;;;;;;;;;;;5071905;28;19920;-66
2022/06/29 02:07:50;;;;;;;;;;;;;;;;;;5072317;28;20205;-66
2022/06/29 02:10:16;;;;;;;;;;;;;;;;;;5071468;28;19928;-66
2022/06/29 02:12:42;;;;;;;;;;;;;;;;;;5072221;28;19921;-66
2022/06/29 02:15:09;;;;;;;;;;;;;;;;;;5072223;28;19999;-67
2022/06/29 02:17:35;;;;;;;;;;;;;;;;;;5071440;28;19987;-67
2022/06/29 02:20:01;;;;;;;;;;;;;;;;;;5072144;28;19921;-67
2022/06/29 02:22:26;;;;;;;;;;;;;;;;;;5072131;28;19966;-67
2022/06/29 02:24:52;;;;;;;;;;;;;;;;;;5070058;28;19932;-67
2022/06/29 02:27:18;;;;;;;;;;;;;;;;;;5090323;28;20021;-67
2022/06/29 02:29:44;;;;;;;;;;;;;;;;;;5092266;28;19924;-67
2022/06/29 02:34:55;;;;;;;;;;;;;;;;;;5091965;28;20302;-67
2022/06/29 02:37:21;;;;;;;;;;;;;;;;;;5092122;28;19931;-67
2022/06/29 02:39:47;;;;;;;;;;;;;;;;;;5091475;28;20008;-67
2022/06/29 02:42:13;;;;;;;;;;;;;;;;;;5091808;28;20013;-67
2022/06/29 02:44:39;;;;;;;;;;;;;;;;;;5091699;28;19924;-67
2022/06/29 02:47:05;;;;;;;;;;;;;;;;;;5091246;28;19920;-67
2022/06/29 02:49:31;;;;;;;;;;;;;;;;;;5092023;28;19939;-67
2022/06/29 02:51:57;;;;;;;;;;;;;;;;;;5091923;28;20437;-67
2022/06/29 02:54:23;;;;;;;;;;;;;;;;;;5091330;28;20397;-67
2022/06/29 02:56:49;;;;;;;;;;;;;;;;;;5091769;28;19977;-67
2022/06/29 02:59:14;;;;;;;;;;;;;;;;;;5091844;28;19920;-67
2022/06/29 03:01:40;;;;;;;;;;;;;;;;;;5091062;28;20020;-67
2022/06/29 03:04:06;;;;;;;;;;;;;;;;;;5091711;28;19924;-67
2022/06/29 03:06:32;;;;;;;;;;;;;;;;;;5093490;28;19920;-67
2022/06/29 03:08:58;;;;;;;;;;;;;;;;;;5095228;28;19924;-67
2022/06/29 03:11:24;;;;;;;;;;;;;;;;;;5095719;28;19920;-67
2022/06/29 03:13:50;;;;;;;;;;;;;;;;;;5095773;28;20286;-67
2022/06/29 03:16:16;;;;;;;;;;;;;;;;;;5094744;28;20011;-67
2022/06/29 03:18:42;;;;;;;;;;;;;;;;;;5095499;28;19927;-67
2022/06/29 03:21:08;;;;;;;;;;;;;;;;;;5095593;28;19920;-67
2022/06/29 03:23:34;;;;;;;;;;;;;;;;;;5094962;28;19943;-67
2022/06/29 03:26:00;;;;;;;;;;;;;;;;;;5087964;28;19931;-67
2022/06/29 03:28:26;;;;;;;;;;;;;;;;;;5075250;28;19992;-67
2022/06/29 03:30:52;;;;;;;;;;;;;;;;;;5074400;28;19931;-67
2022/06/29 03:33:18;;;;;;;;;;;;;;;;;;5075104;28;20295;-67
2022/06/29 03:35:44;;;;;;;;;;;;;;;;;;5075129;28;19920;-67
2022/06/29 03:38:10;;;;;;;;;;;;;;;;;;5074251;28;19925;-67
2022/06/29 03:40:36;;;;;;;;;;;;;;;;;;5074909;28;19982;-67
2022/06/29 03:43:01;;;;;;;;;;;;;;;;;;5074369;28;19928;-67
2022/06/29 03:45:27;;;;;;;;;;;;;;;;;;5074191;28;19920;-67
2022/06/29 03:47:53;;;;;;;;;;;;;;;;;;5074995;28;20313;-67
2022/06/29 03:50:19;;;;;;;;;;;;;;;;;;5074729;28;19943;-67
2022/06/29 03:52:46;;;;;;;;;;;;;;;;;;5074065;28;19921;-67
2022/06/29 03:55:12;;;;;;;;;;;;;;;;;;5074374;28;19995;-67
2022/06/29 03:57:38;;;;;;;;;;;;;;;;;;5074807;28;19932;-67
2022/06/29 04:00:04;;;;;;;;;;;;;;;;;;5074032;28;19920;-67
2022/06/29 04:02:30;;;;;;;;;;;;;;;;;;5074411;28;19935;-67
2022/06/29 04:04:56;;;;;;;;;;;;;;;;;;5074496;28;19924;-67
2022/06/29 04:07:23;;;;;;;;;;;;;;;;;;5072690;28;19924;-67
2022/06/29 04:09:48;;;;;;;;;;;;;;;;;;5074445;28;19974;-67
2022/06/29 04:12:14;;;;;;;;;;;;;;;;;;5074367;28;20306;-67
2022/06/29 04:14:40;;;;;;;;;;;;;;;;;;5073736;28;19960;-67
2022/06/29 04:17:06;;;;;;;;;;;;;;;;;;5074122;28;19929;-67
2022/06/29 04:19:32;;;;;;;;;;;;;;;;;;5074326;28;19925;-67
2022/06/29 04:21:58;;;;;;;;;;;;;;;;;;5073560;28;20427;-67
2022/06/29 04:24:24;;;;;;;;;;;;;;;;;;5074111;28;20275;-67
2022/06/29 04:26:50;;;;;;;;;;;;;;;;;;5088403;28;19923;-67
2022/06/29 04:29:16;;;;;;;;;;;;;;;;;;5093631;28;20084;-67
2022/06/29 04:31:42;;;;;;;;;;;;;;;;;;5093995;28;19924;-67
2022/06/29 04:34:08;;;;;;;;;;;;;;;;;;5094122;28;19943;-67
2022/06/29 04:36:34;;;;;;;;;;;;;;;;;;5093407;28;19928;-67
2022/06/29 04:39:00;;;;;;;;;;;;;;;;;;5093845;28;19924;-67
2022/06/29 04:41:26;;;;;;;;;;;;;;;;;;5093733;28;19931;-67
2022/06/29 04:43:52;;;;;;;;;;;;;;;;;;5092792;28;20014;-67
2022/06/29 04:46:21;;;;;;;;;;;;;;;;;;5093773;28;19975;-67
2022/06/29 04:48:47;;;;;;;;;;;;;;;;;;5093770;28;20521;-67
2022/06/29 04:51:13;;;;;;;;;;;;;;;;;;5092700;28;19920;-67
2022/06/29 04:53:39;;;;;;;;;;;;;;;;;;5093750;28;19927;-67
2022/06/29 04:56:05;;;;;;;;;;;;;;;;;;5093132;28;19939;-67
2022/06/29 04:58:31;;;;;;;;;;;;;;;;;;5092902;28;19931;-67
2022/06/29 05:00:56;;;;;;;;;;;;;;;;;;5093358;28;19924;-67
2022/06/29 05:03:22;;;;;;;;;;;;;;;;;;5093474;28;19981;-67
2022/06/29 05:05:48;;;;;;;;;;;;;;;;;;5092902;28;19985;-67
2022/06/29 05:08:14;;;;;;;;;;;;;;;;;;5092948;28;19920;-67
2022/06/29 05:10:40;;;;;;;;;;;;;;;;;;5093327;28;19920;-67
2022/06/29 05:13:08;;;;;;;;;;;;;;;;;;5093356;28;19935;-67
2022/06/29 05:15:34;;;;;;;;;;;;;;;;;;5092739;28;19945;-67
2022/06/29 05:18:00;;;;;;;;;;;;;;;;;;5093345;28;19924;-67
2022/06/29 05:20:26;;;;;;;;;;;;;;;;;;5093204;28;19932;-67
2022/06/29 05:22:52;;;;;;;;;;;;;;;;;;5092678;28;20083;-67
2022/06/29 05:25:18;;;;;;;;;;;;;;;;;;5091461;28;19920;-67
2022/06/29 05:27:44;;;;;;;;;;;;;;;;;;5072836;28;19927;-67
2022/06/29 05:30:10;;;;;;;;;;;;;;;;;;5071563;28;19921;-67
2022/06/29 05:32:36;;;;;;;;;;;;;;;;;;5072625;28;19959;-67
2022/06/29 05:35:02;;;;;;;;;;;;;;;;;;5072742;28;19930;-67
2022/06/29 05:37:28;;;;;;;;;;;;;;;;;;5071845;28;20298;-67
2022/06/29 05:39:54;;;;;;;;;;;;;;;;;;5072590;28;19920;-67
2022/06/29 05:42:20;;;;;;;;;;;;;;;;;;5072298;28;19927;-67
2022/06/29 05:44:46;;;;;;;;;;;;;;;;;;5071439;28;19954;-67
2022/06/29 05:47:14;;;;;;;;;;;;;;;;;;5072436;28;19924;-67
2022/06/29 05:49:39;;;;;;;;;;;;;;;;;;5072370;28;19920;-67
2022/06/29 05:52:05;;;;;;;;;;;;;;;;;;5096180;28;19928;-67
2022/06/29 05:54:31;;;;;;;;;;;;;;;;;;5092250;28;19993;-67
2022/06/29 05:56:57;;;;;;;;;;;;;;;;;;5102439;28;19920;-67
2022/06/29 05:59:23;;;;;;;;;;;;;;;;;;5086338;28;19933;-67
2022/06/29 06:01:49;;;;;;;;;;;;;;;;;;5078068;28;19925;-67
2022/06/29 06:04:15;;;;;;;;;;;;;;;;;;5098682;28;19982;-67
2022/06/29 06:06:41;;;;;;;;;;;;;;;;;;5111536;28;19919;-67
2022/06/29 06:09:07;;;;;;;;;;;;;;;;;;5112726;28;19920;-67
2022/06/29 06:11:33;;;;;;;;;;;;;;;;;;5112297;28;19998;-67
2022/06/29 06:13:59;;;;;;;;;;;;;;;;;;5111955;28;19920;-67
2022/06/29 06:16:25;;;;;;;;;;;;;;;;;;5107242;28;19919;-66
2022/06/29 06:18:51;;;;;;;;;;;;;;;;;;5081695;28;19940;-66
2022/06/29 06:21:17;;;;;;;;;;;;;;;;;;5083777;28;20007;-67
2022/06/29 06:23:43;;;;;;;;;;;;;;;;;;5083576;28;20019;-66
2022/06/29 06:26:09;;;;;;;;;;;;;;;;;;5080662;28;19924;-66
2022/06/29 06:28:35;;;;;;;;;;;;;;;;;;5099978;28;19954;-66
2022/06/29 06:31:01;;;;;;;;;;;;;;;;;;5078077;28;19986;-66
2022/06/29 06:33:27;;;;;;;;;;;;;;;;;;5079188;28;19943;-66
2022/06/29 06:35:53;;;;;;;;;;;;;;;;;;5080075;28;20015;-66
2022/06/29 06:38:19;;;;;;;;;;;;;;;;;;5090423;28;19924;-66
2022/06/29 06:43:29;;;;;;;;;;;;;;;;;;5084797;28;20483;-67
2022/06/29 06:45:56;;;;;;;;;;;;;;;;;;5091645;28;19968;-67
2022/06/29 06:48:22;;;;;;;;;;;;;;;;;;5087165;28;20294;-67
2022/06/29 06:50:48;;;;;;;;;;;;;;;;;;5082212;28;19928;-67
2022/06/29 06:53:14;;;;;;;;;;;;;;;;;;5086848;28;19924;-67
2022/06/29 06:55:39;;;;;;;;;;;;;;;;;;5087325;28;20011;-67
2022/06/29 06:58:05;;;;;;;;;;;;;;;;;;5088805;28;19928;-67
2022/06/29 07:00:31;;;;;;;;;;;;;;;;;;5088685;28;19931;-67
2022/06/29 07:02:57;;;;;;;;;;;;;;;;;;5087181;28;20002;-66
2022/06/29 07:05:25;;;;;;;;;;;;;;;;;;5093911;28;19920;-66
2022/06/29 07:07:51;;;;;;;;;;;;;;;;;;5095206;28;19945;-66
2022/06/29 07:10:17;;;;;;;;;;;;;;;;;;5090320;28;19980;-66
2022/06/29 07:12:43;;;;;;;;;;;;;;;;;;5095916;28;20013;-66
2022/06/29 07:15:09;;;;;;;;;;;;;;;;;;5094365;28;19943;-66
2022/06/29 07:17:35;;;;;;;;;;;;;;;;;;5094229;28;19924;-66
2022/06/29 07:20:01;;;;;;;;;;;;;;;;;;5089604;28;19924;-66
2022/06/29 07:22:27;;;;;;;;;;;;;;;;;;5091041;28;20483;-66
2022/06/29 07:24:53;;;;;;;;;;;;;;;;;;5089599;28;19947;-67
2022/06/29 07:27:19;;;;;;;;;;;;;;;;;;5091113;28;20080;-67
2022/06/29 07:29:45;;;;;;;;;;;;;;;;;;5093363;28;20050;-66
2022/06/29 07:32:11;;;;;;;;;;;;;;;;;;5094346;28;20017;-66
2022/06/29 07:34:36;;;;;;;;;;;;;;;;;;5088315;28;19924;-66
2022/06/29 07:37:02;;;;;;;;;;;;;;;;;;5101264;28;19924;-66
2022/06/29 07:39:31;;;;;;;;;;;;;;;;;;5090584;28;19935;-66
2022/06/29 07:41:57;;;;;;;;;;;;;;;;;;5085543;28;19924;-65
2022/06/29 07:44:23;;;;;;;;;;;;;;;;;;5094665;28;19930;-66
2022/06/29 07:46:49;;;;;;;;;;;;;;;;;;5083668;28;19920;-66
2022/06/29 07:49:15;;;;;;;;;;;;;;;;;;5090846;28;20026;-66
2022/06/29 07:51:41;;;;;;;;;;;;;;;;;;5100853;28;19962;-66
2022/06/29 07:54:07;;;;;;;;;;;;;;;;;;5093246;28;19946;-66
2022/06/29 07:56:36;;;;;;;;;;;;;;;;;;5091869;28;19930;-66
2022/06/29 07:59:01;;;;;;;;;;;;;;;;;;5081930;28;20022;-66
2022/06/29 08:01:27;;;;;;;;;;;;;;;;;;5096384;28;20014;-66
2022/06/29 08:03:54;;;;;;;;;;;;;;;;;;5087695;28;19924;-67
2022/06/29 08:06:20;;;;;;;;;;;;;;;;;;5097560;28;19920;-66
2022/06/29 08:08:46;;;;;;;;;;;;;;;;;;5086900;28;19928;-66
2022/06/29 08:11:12;;;;;;;;;;;;;;;;;;5085122;28;19924;-66
2022/06/29 08:13:38;;;;;;;;;;;;;;;;;;5085724;28;20290;-66
2022/06/29 08:16:04;;;;;;;;;;;;;;;;;;5088133;28;20293;-66
2022/06/29 08:18:30;;;;;;;;;;;;;;;;;;5089793;28;19928;-66
2022/06/29 08:20:56;;;;;;;;;;;;;;;;;;5093037;28;19924;-67
2022/06/29 08:23:22;;;;;;;;;;;;;;;;;;5089264;28;19924;-66
2022/06/29 08:25:48;;;;;;;;;;;;;;;;;;5090365;28;20010;-66
2022/06/29 08:28:13;;;;;;;;;;;;;;;;;;5093152;28;19969;-66
2022/06/29 08:30:40;;;;;;;;;;;;;;;;;;5084352;28;19989;-66
2022/06/29 08:33:05;;;;;;;;;;;;;;;;;;5094681;28;19920;-66
2022/06/29 08:35:34;;;;;;;;;;;;;;;;;;5085552;28;19966;-67
2022/06/29 08:38:00;;;;;;;;;;;;;;;;;;5090697;28;20451;-67
2022/06/29 08:40:26;;;;;;;;;;;;;;;;;;5089362;28;19930;-66
2022/06/29 08:42:52;;;;;;;;;;;;;;;;;;5092682;28;19935;-67
2022/06/29 08:45:18;;;;;;;;;;;;;;;;;;5089105;28;19927;-67
2022/06/29 08:47:44;;;;;;;;;;;;;;;;;;5080776;28;19924;-66
2022/06/29 08:50:10;;;;;;;;;;;;;;;;;;5093951;28;20290;-67
2022/06/29 08:52:36;;;;;;;;;;;;;;;;;;5099875;28;19924;-67
2022/06/29 08:55:02;;;;;;;;;;;;;;;;;;5087300;28;19924;-65
2022/06/29 08:57:28;;;;;;;;;;;;;;;;;;5088228;28;20577;-64
2022/06/29 08:59:55;;;;;;;;;;;;;;;;;;5101554;28;19919;-64
2022/06/29 09:02:22;;;;;;;;;;;;;;;;;;5086647;28;19982;-66
2022/06/29 09:04:48;;;;;;;;;;;;;;;;;;5093568;28;20786;-67
2022/06/29 09:07:13;;;;;;;;;;;;;;;;;;5100783;28;19920;-66
2022/06/29 09:09:39;;;;;;;;;;;;;;;;;;5086812;28;19920;-66
2022/06/29 09:12:05;;;;;;;;;;;;;;;;;;5086272;28;19924;-67
2022/06/29 09:14:33;;;;;;;;;;;;;;;;;;5088546;28;19924;-67
2022/06/29 09:16:59;;;;;;;;;;;;;;;;;;5094297;28;19931;-67
2022/06/29 09:19:25;;;;;;;;;;;;;;;;;;5094940;28;19919;-67
2022/06/29 09:21:51;;;;;;;;;;;;;;;;;;5089436;28;20003;-68
2022/06/29 09:24:17;;;;;;;;;;;;;;;;;;5076216;28;19943;-69
2022/06/29 09:26:43;;;;;;;;;;;;;;;;;;5074403;28;19924;-68
2022/06/29 09:29:09;;;;;;;;;;;;;;;;;;5085908;28;19963;-68
2022/06/29 09:31:35;;;;;;;;;;;;;;;;;;5097521;28;19944;-69
2022/06/29 09:34:01;;;;;;;;;;;;;;;;;;5069236;28;19919;-68
2022/06/29 09:36:27;;;;;;;;;;;;;;;;;;5089384;28;20421;-69
2022/06/29 09:38:54;;;;;;;;;;;;;;;;;;5086807;28;20026;-67
2022/06/29 09:41:20;;;;;;;;;;;;;;;;;;5083774;28;19921;-67
2022/06/29 09:43:46;;;;;;;;;;;;;;;;;;5071098;28;19932;-68
2022/06/29 09:46:12;;;;;;;;;;;;;;;;;;5080831;28;20022;-69
2022/06/29 09:48:38;;;;;;;;;;;;;;;;;;5099708;28;19928;-67
2022/06/29 09:53:48;;;;;;;;;;;;;;;;;;5081823;28;20314;-66
2022/06/29 09:56:14;;;;;;;;;;;;;;;;;;5083468;28;19959;-66
2022/06/29 09:58:41;;;;;;;;;;;;;;;;;;5083949;28;19929;-66
2022/06/29 10:03:52;;;;;;;;;;;;;;;;;;5085520;28;19928;-67
2022/06/29 10:06:18;;;;;;;;;;;;;;;;;;5089060;28;19946;-66
2022/06/29 10:08:45;;;;;;;;;;;;;;;;;;5085933;28;19923;-70
2022/06/29 10:13:55;;;;;;;;;;;;;;;;;;5087857;28;20290;-66
2022/06/29 10:16:22;;;;;;;;;;;;;;;;;;5078445;28;19920;-67
2022/06/29 10:18:48;;;;;;;;;;;;;;;;;;5079173;28;20019;-67
2022/06/29 10:21:14;;;;;;;;;;;;;;;;;;5097837;28;20000;-67
2022/06/29 10:23:40;;;;;;;;;;;;;;;;;;5091258;28;20017;-66
2022/06/29 10:26:06;;;;;;;;;;;;;;;;;;5088083;28;19925;-67
2022/06/29 10:28:32;;;;;;;;;;;;;;;;;;5094577;28;19994;-67
2022/06/29 10:30:58;;;;;;;;;;;;;;;;;;5078584;28;20031;-67
2022/06/29 10:33:24;;;;;;;;;;;;;;;;;;5085559;28;19920;-66
2022/06/29 10:35:50;;;;;;;;;;;;;;;;;;5091176;28;19926;-66
2022/06/29 10:38:19;;;;;;;;;;;;;;;;;;5104038;28;19970;-67
2022/06/29 10:40:45;;;;;;;;;;;;;;;;;;5093875;28;19920;-66
2022/06/29 10:43:12;;;;;;;;;;;;;;;;;;5087862;28;19985;-66
2022/06/29 10:45:38;;;;;;;;;;;;;;;;;;5089418;28;19943;-67
2022/06/29 10:48:06;;;;;;;;;;;;;;;;;;5098755;28;19923;-67
2022/06/29 10:50:32;;;;;;;;;;;;;;;;;;5096645;28;20039;-68
2022/06/29 10:52:58;;;;;;;;;;;;;;;;;;5084836;28;20466;-68
2022/06/29 10:55:24;;;;;;;;;;;;;;;;;;5085143;28;19920;-67
2022/06/29 10:57:52;;;;;;;;;;;;;;;;;;5081491;28;19932;-67
2022/06/29 11:00:18;;;;;;;;;;;;;;;;;;5074716;28;19928;-68
2022/06/29 11:02:44;;;;;;;;;;;;;;;;;;5098013;28;19926;-68
2022/06/29 11:05:10;;;;;;;;;;;;;;;;;;5087424;28;19924;-69
2022/06/29 11:13:05;;;;;;;;;;;;;;;;;;5081188;28;20294;-67
2022/06/29 11:15:47;;;;;;;;;;;;;;;;;;5088697;28;19920;-68
2022/06/29 11:18:13;;;;;;;;;;;;;;;;;;5081246;28;19928;-69
2022/06/29 11:20:39;;;;;;;;;;;;;;;;;;5089292;28;19924;-69
2022/06/29 11:23:04;;;;;;;;;;;;;;;;;;5082237;28;19924;-69
2022/06/29 11:25:30;;;;;;;;;;;;;;;;;;5085724;28;20027;-69
2022/06/29 11:27:56;;;;;;;;;;;;;;;;;;5084989;28;19985;-69
2022/06/29 11:30:22;;;;;;;;;;;;;;;;;;5085323;28;19974;-69
2022/06/29 11:32:48;;;;;;;;;;;;;;;;;;5087837;28;19924;-69
2022/06/29 11:35:15;;;;;;;;;;;;;;;;;;5083860;28;20068;-69
2022/06/29 11:37:41;;;;;;;;;;;;;;;;;;5088316;28;19928;-69
2022/06/29 11:40:07;;;;;;;;;;;;;;;;;;5068220;28;19929;-69
2022/06/29 11:45:18;;;;;;;;;;;;;;;;;;5084335;28;20374;-69
2022/06/29 11:47:44;;;;;;;;;;;;;;;;;;5083517;28;19932;-69
2022/06/29 11:50:10;;;;;;;;;;;;;;;;;;5070987;28;19921;-69
2022/06/29 11:52:36;;;;;;;;;;;;;;;;;;5089289;28;19924;-69
2022/06/29 11:55:02;;;;;;;;;;;;;;;;;;5080194;28;19931;-68
2022/06/29 11:57:28;;;;;;;;;;;;;;;;;;5071073;28;19928;-69
2022/06/29 11:59:54;;;;;;;;;;;;;;;;;;5077556;28;19924;-69
2022/06/29 12:02:19;;;;;;;;;;;;;;;;;;5082810;28;19920;-69
2022/06/29 12:04:46;;;;;;;;;;;;;;;;;;5081230;28;19920;-68
2022/06/29 12:07:12;;;;;;;;;;;;;;;;;;5086894;28;19924;-68
2022/06/29 12:09:38;;;;;;;;;;;;;;;;;;5092135;28;19931;-68
2022/06/29 12:12:04;;;;;;;;;;;;;;;;;;5091373;28;19946;-69
2022/06/29 12:14:30;;;;;;;;;;;;;;;;;;5083872;28;19920;-69
2022/06/29 12:16:56;;;;;;;;;;;;;;;;;;5092043;28;19919;-70
2022/06/29 12:19:22;;;;;;;;;;;;;;;;;;5098514;28;20664;-69
2022/06/29 12:21:48;;;;;;;;;;;;;;;;;;5084972;28;19929;-69
2022/06/29 12:24:15;;;;;;;;;;;;;;;;;;5082409;28;19920;-68
2022/06/29 12:26:41;;;;;;;;;;;;;;;;;;5089269;28;19920;-68
2022/06/29 12:29:07;;;;;;;;;;;;;;;;;;5083945;28;19923;-69
2022/06/29 12:31:32;;;;;;;;;;;;;;;;;;5085751;28;19925;-69
2022/06/29 12:33:58;;;;;;;;;;;;;;;;;;5079351;28;19920;-69
2022/06/29 12:36:24;;;;;;;;;;;;;;;;;;5063247;28;20015;-69
2022/06/29 12:38:50;;;;;;;;;;;;;;;;;;5086453;28;19924;-69
2022/06/29 12:41:16;;;;;;;;;;;;;;;;;;5084959;28;19930;-71
2022/06/29 12:43:42;;;;;;;;;;;;;;;;;;5079017;28;19982;-69
2022/06/29 12:46:08;;;;;;;;;;;;;;;;;;5081510;28;19990;-69
2022/06/29 12:48:34;;;;;;;;;;;;;;;;;;5079621;28;20372;-69
2022/06/29 12:51:00;;;;;;;;;;;;;;;;;;5078657;28;19964;-70
2022/06/29 12:53:26;;;;;;;;;;;;;;;;;;5082624;28;20005;-69
2022/06/29 12:55:52;;;;;;;;;;;;;;;;;;5086647;28;19992;-66
2022/06/29 12:58:18;;;;;;;;;;;;;;;;;;5086990;28;19992;-67
2022/06/29 13:00:44;;;;;;;;;;;;;;;;;;5080713;28;19928;-67
2022/06/29 13:03:11;;;;;;;;;;;;;;;;;;5087846;28;19920;-67
2022/06/29 13:05:37;;;;;;;;;;;;;;;;;;5080068;28;20468;-68
2022/06/29 13:08:03;;;;;;;;;;;;;;;;;;5085008;28;19920;-68
2022/06/29 13:10:29;;;;;;;;;;;;;;;;;;5084750;28;19946;-68
2022/06/29 13:12:55;;;;;;;;;;;;;;;;;;5089193;28;19920;-68
2022/06/29 13:15:21;;;;;;;;;;;;;;;;;;5078103;28;19920;-68
2022/06/29 13:17:47;;;;;;;;;;;;;;;;;;5078615;28;19935;-68
2022/06/29 13:20:13;;;;;;;;;;;;;;;;;;5086187;28;19921;-67
2022/06/29 13:22:39;;;;;;;;;;;;;;;;;;5082749;28;19927;-68
2022/06/29 13:25:05;;;;;;;;;;;;;;;;;;5061817;28;19958;-68
2022/06/29 13:27:31;;;;;;;;;;;;;;;;;;5091755;28;19920;-67
2022/06/29 13:29:57;;;;;;;;;;;;;;;;;;5091714;28;19981;-67
2022/06/29 13:32:22;;;;;;;;;;;;;;;;;;5092207;28;19920;-67
2022/06/29 13:34:48;;;;;;;;;;;;;;;;;;5092403;28;19920;-67
2022/06/29 13:37:14;;;;;;;;;;;;;;;;;;5091858;28;19920;-67
2022/06/29 13:39:40;;;;;;;;;;;;;;;;;;5086107;28;19928;-66
2022/06/29 13:42:07;;;;;;;;;;;;;;;;;;5085463;28;19947;-66
2022/06/29 13:44:33;;;;;;;;;;;;;;;;;;5091369;28;19967;-66
2022/06/29 13:46:59;;;;;;;;;;;;;;;;;;5091385;28;19927;-66
2022/06/29 13:49:25;;;;;;;;;;;;;;;;;;5091759;28;19927;-66
2022/06/29 13:51:51;;;;;;;;;;;;;;;;;;5091006;28;19924;-66
2022/06/29 13:54:17;;;;;;;;;;;;;;;;;;5091840;28;19924;-66
2022/06/29 13:56:43;;;;;;;;;;;;;;;;;;5091377;28;20328;-66
2022/06/29 13:59:09;;;;;;;;;;;;;;;;;;5090381;28;19924;-66
2022/06/29 14:01:35;;;;;;;;;;;;;;;;;;5091271;28;19920;-66
2022/06/29 14:04:00;;;;;;;;;;;;;;;;;;5091330;28;19920;-66
2022/06/29 14:06:26;;;;;;;;;;;;;;;;;;5090121;28;19989;-67
2022/06/29 14:08:52;;;;;;;;;;;;;;;;;;5091527;28;19924;-66
2022/06/29 14:11:20;;;;;;;;;;;;;;;;;;5091773;28;19927;-66
2022/06/29 14:13:46;;;;;;;;;;;;;;;;;;5090371;28;19967;-66
2022/06/29 14:16:12;;;;;;;;;;;;;;;;;;5085229;28;19974;-66
2022/06/29 14:18:37;;;;;;;;;;;;;;;;;;5091046;28;19928;-66
2022/06/29 14:21:03;;;;;;;;;;;;;;;;;;5080601;28;19931;-66
2022/06/29 14:23:29;;;;;;;;;;;;;;;;;;5081292;28;19954;-67
2022/06/29 14:25:56;;;;;;;;;;;;;;;;;;5081800;28;20355;-66
2022/06/29 14:28:22;;;;;;;;;;;;;;;;;;5089113;28;19920;-65
2022/06/29 14:30:48;;;;;;;;;;;;;;;;;;5091385;28;19924;-66
2022/06/29 14:33:14;;;;;;;;;;;;;;;;;;5080647;28;19924;-67
2022/06/29 14:35:40;;;;;;;;;;;;;;;;;;5089496;28;19985;-67
2022/06/29 14:38:06;;;;;;;;;;;;;;;;;;5089947;28;19966;-65
2022/06/29 14:40:32;;;;;;;;;;;;;;;;;;5091644;28;20038;-67
2022/06/29 14:42:58;;;;;;;;;;;;;;;;;;5089772;28;19998;-66
2022/06/29 14:45:24;;;;;;;;;;;;;;;;;;5090884;28;19977;-66
2022/06/29 14:47:50;;;;;;;;;;;;;;;;;;5091262;28;19920;-66
2022/06/29 14:50:17;;;;;;;;;;;;;;;;;;5091328;28;19947;-66
2022/06/29 14:52:43;;;;;;;;;;;;;;;;;;5090702;28;19936;-66
2022/06/29 14:55:09;;;;;;;;;;;;;;;;;;5090317;28;19920;-66
2022/06/29 14:57:35;;;;;;;;;;;;;;;;;;5091161;28;19931;-67
2022/06/29 15:00:01;;;;;;;;;;;;;;;;;;5089499;28;19981;-67
2022/06/29 15:02:27;;;;;;;;;;;;;;;;;;5092644;28;19928;-67
2022/06/29 15:04:53;;;;;;;;;;;;;;;;;;5077593;28;19942;-66
2022/06/29 15:07:19;;;;;;;;;;;;;;;;;;5095225;28;19920;-66
2022/06/29 15:09:45;;;;;;;;;;;;;;;;;;5095898;28;19920;-66
2022/06/29 15:12:11;;;;;;;;;;;;;;;;;;5094236;28;19920;-66
2022/06/29 15:14:37;;;;;;;;;;;;;;;;;;5094986;28;19985;-66
2022/06/29 15:17:03;;;;;;;;;;;;;;;;;;5095661;28;19920;-66
2022/06/29 15:19:30;;;;;;;;;;;;;;;;;;5095644;28;19973;-66
2022/06/29 15:21:56;;;;;;;;;;;;;;;;;;5094845;28;20373;-66
2022/06/29 15:24:25;;;;;;;;;;;;;;;;;;5095450;28;19924;-66
2022/06/29 15:26:51;;;;;;;;;;;;;;;;;;5080378;28;19929;-66
2022/06/29 15:29:17;;;;;;;;;;;;;;;;;;5073160;28;19930;-66
2022/06/29 15:31:43;;;;;;;;;;;;;;;;;;5073670;28;20007;-66
2022/06/29 15:39:38;;;;;;;;;;;;;;;;;;5074994;28;20271;-66
2022/06/29 15:42:05;;;;;;;;;;;;;;;;;;5074773;28;19966;-66
2022/06/29 15:44:31;;;;;;;;;;;;;;;;;;5073839;28;20366;-66
2022/06/29 15:46:57;;;;;;;;;;;;;;;;;;5074900;28;19963;-66
2022/06/29 15:49:23;;;;;;;;;;;;;;;;;;5084257;28;19924;-66
2022/06/29 15:51:49;;;;;;;;;;;;;;;;;;5092662;28;19943;-66
2022/06/29 15:56:59;;;;;;;;;;;;;;;;;;5094598;28;20316;-66
2022/06/29 15:59:25;;;;;;;;;;;;;;;;;;5093923;28;19931;-66
2022/06/29 16:01:51;;;;;;;;;;;;;;;;;;5094488;28;20017;-66
2022/06/29 16:04:17;;;;;;;;;;;;;;;;;;5094103;28;19928;-66
2022/06/29 16:06:43;;;;;;;;;;;;;;;;;;5093812;28;19927;-66
2022/06/29 16:09:09;;;;;;;;;;;;;;;;;;5094542;28;19942;-66
2022/06/29 16:14:19;;;;;;;;;;;;;;;;;;5099921;28;20433;-66
2022/06/29 16:16:45;;;;;;;;;;;;;;;;;;5114866;28;19974;-66
2022/06/29 16:19:11;;;;;;;;;;;;;;;;;;5114807;28;20022;-66
2022/06/29 16:21:37;;;;;;;;;;;;;;;;;;5114334;28;19924;-66
2022/06/29 16:24:03;;;;;;;;;;;;;;;;;;5114412;28;20010;-66
2022/06/29 16:26:29;;;;;;;;;;;;;;;;;;5102624;28;19974;-66
2022/06/29 16:28:55;;;;;;;;;;;;;;;;;;5093566;28;19924;-66
2022/06/29 16:31:21;;;;;;;;;;;;;;;;;;5094126;28;19926;-66
2022/06/29 16:33:47;;;;;;;;;;;;;;;;;;5094302;28;19946;-66
2022/06/29 16:36:13;;;;;;;;;;;;;;;;;;5093626;28;19963;-66
2022/06/29 16:38:39;;;;;;;;;;;;;;;;;;5094191;28;20036;-66
2022/06/29 16:41:05;;;;;;;;;;;;;;;;;;5094005;28;19999;-66
2022/06/29 16:43:31;;;;;;;;;;;;;;;;;;5092931;28;19924;-66
2022/06/29 16:45:57;;;;;;;;;;;;;;;;;;5093530;28;19927;-66
2022/06/29 16:48:22;;;;;;;;;;;;;;;;;;5093928;28;20011;-66
2022/06/29 16:50:48;;;;;;;;;;;;;;;;;;5093177;28;19995;-67
2022/06/29 16:53:14;;;;;;;;;;;;;;;;;;5094132;28;19924;-67
2022/06/29 16:55:40;;;;;;;;;;;;;;;;;;5093809;28;19982;-67
2022/06/29 16:58:08;;;;;;;;;;;;;;;;;;5092904;28;20294;-67
2022/06/29 17:00:34;;;;;;;;;;;;;;;;;;5093367;28;19927;-67
2022/06/29 17:03:00;;;;;;;;;;;;;;;;;;5091957;28;19974;-67
2022/06/29 17:05:26;;;;;;;;;;;;;;;;;;5093004;28;19920;-67
2022/06/29 17:07:52;;;;;;;;;;;;;;;;;;5093706;28;20001;-67
2022/06/29 17:10:17;;;;;;;;;;;;;;;;;;5093413;28;20007;-67